Hauptseite
METAR-TAF:

METAR-TAF

Flughäfen :

Grafenwöhr, Deutschland

Breite: 49-42N, Länge: 011-57E, Höhe: 415 m

Beobachtung

Neuester Wetterbericht von vor 46 Minuten, um 05:56 UTC
Windstille
Temperatur 0°C
Luftfeuchtigkeit 100%
Luftdruck 1043 hPa
Sichtweite 10 km oder mehr
Geschlossene Wolkendecke in der Höhe von 4000 ft

METAR: ETIC 200556Z AUTO 00000KT 9999 OVC040 00/00 A3079 RMK AO2 FZDZB28E29 SLP454 P0000 60000 T10051005 11002 21013 52014 $

Zeit: 07:42 (06:42 UTC)


TAF: fehlend

Wetterbeobachtungen und Prognosen von mehr als 4000 Flughäfen (METAR und TAF Bericht).

Die verfügbaren Stationen werden durch gelbe und rote Markierungen auf der Karte dargestellt.

Führen Sie die Maus auf sie, um den Namen der Station zu sehen.

Darauf klicken, um die Beobachtung von Wetterbeobachtungen und Prognosen zu sehen.

Um die Karte zu ändern : klicken Sie auf den grünen Tasten mit einem schwarzen Kreuz Zum Vergrößern, auf den grünen Button mit einem Gedankenstrich zu verkleinern, oder auf die grünen Pfeile für benachbarte Karten.


METAR-TAF: